Time;durP1;ratioP1;P1;durP2;ratioP2;P2;SDS_P1;SDS_P2;PMS_P1;PMS_P2;Temp;Humidity;BMP_temperature;BMP_pressure;BME280_temperature;BME280_humidity;BME280_pressure;Samples;Min_cycle;Max_cycle;Signal;HPM_P1;HPM_P2
2021/07/20 00:00:35;;;;;;;;;17.25;15.00;;;;;27.95;43.98;101554.75;4998018;28;45466;-81
2021/07/20 00:03:02;;;;;;;;;14.75;13.75;;;;;27.90;44.06;101554.84;4997451;28;45425;-81
2021/07/20 00:05:29;;;;;;;;;17.50;13.75;;;;;27.87;44.19;101549.56;4997390;28;45346;-81
2021/07/20 00:07:57;;;;;;;;;20.00;14.75;;;;;27.83;44.58;101546.97;4996991;28;45429;-81
2021/07/20 00:10:29;;;;;;;;;12.25;12.25;;;;;27.78;44.68;101549.69;4997467;28;45605;-81
2021/07/20 00:12:55;;;;;;;;;12.25;12.25;;;;;27.72;44.38;101542.69;4996772;28;46661;-81
2021/07/20 00:15:20;;;;;;;;;16.00;15.50;;;;;27.68;44.53;101545.44;4997190;28;45358;-81
2021/07/20 00:17:49;;;;;;;;;13.75;12.00;;;;;27.63;44.63;101542.84;4997261;28;45977;-81
2021/07/20 00:20:17;;;;;;;;;13.25;12.50;;;;;27.60;44.87;101541.09;4997872;28;45402;-81
2021/07/20 00:22:43;;;;;;;;;14.75;14.00;;;;;27.58;44.85;101544.69;5003360;28;45538;-81
2021/07/20 00:25:11;;;;;;;;;12.50;11.25;;;;;27.54;44.91;101551.81;5002034;28;45410;-81
2021/07/20 00:27:37;;;;;;;;;15.50;11.75;;;;;27.52;44.91;101543.00;4997391;28;45375;-81
2021/07/20 00:30:05;;;;;;;;;13.00;12.50;;;;;27.51;45.01;101546.56;4997658;28;45334;-81
2021/07/20 00:32:31;;;;;;;;;14.00;13.75;;;;;27.48;44.97;101539.50;4997193;28;45398;-81
2021/07/20 00:34:57;;;;;;;;;19.25;14.75;;;;;27.47;44.88;101545.72;4997544;28;45857;-81
2021/07/20 00:37:23;;;;;;;;;13.25;11.50;;;;;27.46;45.28;101537.75;4996716;28;45367;-81
2021/07/20 00:39:49;;;;;;;;;14.75;13.75;;;;;27.44;44.85;101535.13;4996745;28;45504;-81
2021/07/20 00:42:15;;;;;;;;;14.75;13.50;;;;;27.43;44.81;101538.66;4996656;28;45982;-81
2021/07/20 00:44:41;;;;;;;;;19.50;15.50;;;;;27.42;45.66;101538.69;4996534;28;45311;-81
2021/07/20 00:47:06;;;;;;;;;14.50;13.75;;;;;27.40;45.35;101532.50;4999679;28;45397;-81
2021/07/20 00:49:32;;;;;;;;;13.50;13.50;;;;;27.38;45.69;101532.50;5003613;28;45237;-81
2021/07/20 00:51:58;;;;;;;;;14.25;13.25;;;;;27.34;45.35;101538.78;4998162;28;45515;-81
2021/07/20 00:54:24;;;;;;;;;20.25;15.50;;;;;27.29;45.04;101537.97;4996660;28;45383;-81
2021/07/20 00:56:51;;;;;;;;;13.00;13.00;;;;;27.25;45.63;101539.78;4996556;28;45528;-81
2021/07/20 00:59:17;;;;;;;;;14.75;14.00;;;;;27.21;46.04;101537.19;4996843;28;45483;-81
2021/07/20 01:01:43;;;;;;;;;17.75;13.50;;;;;27.16;45.89;101534.59;4996000;28;45458;-81
2021/07/20 01:04:09;;;;;;;;;15.75;13.75;;;;;27.10;46.11;101537.34;4996249;28;45454;-81
2021/07/20 01:06:35;;;;;;;;;15.25;14.00;;;;;27.07;46.21;101534.72;4994738;28;45411;-82
2021/07/20 01:09:03;;;;;;;;;15.00;13.00;;;;;27.03;46.12;101533.88;4997174;28;45817;-81
2021/07/20 01:11:33;;;;;;;;;16.50;14.50;;;;;26.97;46.54;101537.50;4997061;28;45444;-81
2021/07/20 01:14:01;;;;;;;;;17.00;15.50;;;;;26.94;46.59;101534.84;4998096;28;45437;-82
2021/07/20 01:16:30;;;;;;;;;15.00;14.50;;;;;26.92;46.48;101535.78;5004243;28;45375;-81
2021/07/20 01:18:56;;;;;;;;;16.75;14.75;;;;;26.87;46.35;101535.84;4999561;28;45364;-81
2021/07/20 01:21:26;;;;;;;;;13.75;13.00;;;;;26.86;46.97;101534.09;4996126;28;45445;-81
2021/07/20 01:23:52;;;;;;;;;14.50;13.00;;;;;26.84;47.07;101539.38;4996149;28;45228;-81
2021/07/20 01:26:19;;;;;;;;;16.75;15.25;;;;;26.80;46.63;101534.13;4996285;28;45389;-81
2021/07/20 01:28:46;;;;;;;;;16.50;13.75;;;;;26.76;47.27;101540.38;4996095;28;45331;-81
2021/07/20 01:31:15;;;;;;;;;14.25;14.25;;;;;26.70;46.82;101536.00;4996001;28;45468;-81
2021/07/20 01:33:45;;;;;;;;;15.00;14.00;;;;;26.67;47.51;101544.00;4996695;28;45339;-81
2021/07/20 01:36:12;;;;;;;;;16.00;14.00;;;;;26.63;46.84;101545.81;4999981;28;45469;-81
2021/07/20 01:38:39;;;;;;;;;18.25;14.50;;;;;26.58;47.55;101537.88;5000498;28;45634;-81
2021/07/20 01:41:09;;;;;;;;;15.00;14.25;;;;;26.52;47.39;101550.34;5004422;28;45430;-81
2021/07/20 01:43:38;;;;;;;;;15.25;14.25;;;;;26.50;47.18;101546.81;5001314;28;46631;-81
2021/07/20 01:46:06;;;;;;;;;14.25;14.00;;;;;26.50;47.45;101550.38;5002932;28;45309;-81
2021/07/20 01:48:37;;;;;;;;;14.00;11.75;;;;;26.49;47.77;101545.06;5000687;28;45561;-81
2021/07/20 01:51:03;;;;;;;;;19.00;16.00;;;;;26.42;47.63;101542.47;4999060;28;45437;-81
2021/07/20 01:53:31;;;;;;;;;14.25;13.75;;;;;26.38;47.93;101550.50;4999385;28;45273;-81
2021/07/20 01:56:00;;;;;;;;;17.00;13.50;;;;;26.33;48.30;101546.97;4999290;28;45448;-81
2021/07/20 01:58:26;;;;;;;;;15.00;14.75;;;;;26.30;47.89;101544.34;4999356;28;45390;-81
2021/07/20 02:00:54;;;;;;;;;15.50;14.00;;;;;26.27;48.38;101545.25;4998896;28;46346;-81
2021/07/20 02:09:19;;;;;;;;;11.50;11.25;;;;;26.18;48.05;101546.25;5001636;28;45378;-81
2021/07/20 02:11:45;;;;;;;;;16.50;15.00;;;;;26.17;48.41;101548.88;5002241;28;45564;-81
2021/07/20 02:14:14;;;;;;;;;13.00;11.50;;;;;26.11;48.88;101544.50;5000168;28;45347;-81
2021/07/20 02:16:44;;;;;;;;;14.00;12.50;;;;;26.05;48.34;101552.50;4999730;28;45403;-88
2021/07/20 02:19:33;;;;;;;;;13.50;12.25;;;;;25.99;48.81;101548.13;4999008;28;45376;-80
2021/07/20 02:22:00;;;;;;;;;13.00;13.00;;;;;25.96;48.33;101542.84;4999397;28;46439;-80
2021/07/20 02:24:33;;;;;;;;;14.75;14.00;;;;;25.91;49.17;101549.97;4998628;28;45416;-80
2021/07/20 02:27:02;;;;;;;;;15.25;14.00;;;;;25.87;49.07;101543.78;4999134;28;45292;-79
2021/07/20 02:29:29;;;;;;;;;16.00;13.50;;;;;25.89;48.73;101541.13;4999403;28;45574;-80
2021/07/20 02:31:58;;;;;;;;;13.25;13.25;;;;;25.88;48.95;101542.88;4998740;28;46223;-79
2021/07/20 02:34:27;;;;;;;;;14.00;12.50;;;;;25.91;48.79;101539.34;4998947;28;45669;-79
2021/07/20 02:36:54;;;;;;;;;13.00;12.50;;;;;25.93;49.02;101537.53;5000395;28;45328;-80
2021/07/20 02:39:21;;;;;;;;;12.25;12.25;;;;;25.93;49.22;101541.09;5004710;28;45259;-79
2021/07/20 02:41:49;;;;;;;;;12.50;12.50;;;;;25.94;48.50;101542.84;5001369;28;45321;-79
2021/07/20 02:44:16;;;;;;;;;15.75;14.00;;;;;25.92;49.02;101541.97;4997882;28;45446;-79
2021/07/20 02:46:43;;;;;;;;;14.00;13.00;;;;;25.89;48.71;101539.34;4998000;28;45323;-80
2021/07/20 02:49:10;;;;;;;;;14.25;11.75;;;;;25.85;48.66;101540.28;4998640;28;45490;-79
2021/07/20 02:51:36;;;;;;;;;13.50;12.00;;;;;25.84;48.81;101530.56;4996599;28;45788;-79
2021/07/20 02:54:02;;;;;;;;;14.00;13.00;;;;;25.81;49.50;101539.38;4996914;28;45276;-79
2021/07/20 02:56:29;;;;;;;;;13.25;13.25;;;;;25.76;48.73;101541.22;4998420;28;45347;-79
2021/07/20 02:58:59;;;;;;;;;12.25;12.25;;;;;25.71;49.31;101543.00;4998429;28;45392;-79
2021/07/20 03:01:26;;;;;;;;;12.00;11.75;;;;;25.64;48.88;101547.50;4999194;28;45386;-79
2021/07/20 03:03:52;;;;;;;;;11.50;11.25;;;;;25.62;49.39;101537.75;5000395;28;45174;-80
2021/07/20 03:06:23;;;;;;;;;12.00;12.00;;;;;25.61;49.04;101547.50;5002591;28;45418;-79
2021/07/20 03:08:52;;;;;;;;;13.00;11.50;;;;;25.59;49.54;101538.66;5001543;28;45422;-79
2021/07/20 03:11:20;;;;;;;;;15.00;13.00;;;;;25.59;49.69;101543.97;4999650;28;45362;-80
2021/07/20 03:13:48;;;;;;;;;15.50;13.25;;;;;25.58;49.63;101552.81;4998413;28;45834;-80
2021/07/20 03:16:16;;;;;;;;;14.00;13.00;;;;;25.55;49.71;101542.22;4998445;28;45351;-79
2021/07/20 03:18:46;;;;;;;;;16.75;11.75;;;;;25.54;49.34;101550.19;4998321;28;45458;-80
2021/07/20 03:21:16;;;;;;;;;15.00;12.50;;;;;25.51;49.25;101540.50;4998927;28;46512;-80
2021/07/20 03:23:44;;;;;;;;;12.75;11.00;;;;;25.46;49.19;101537.88;4998807;28;45315;-79
2021/07/20 03:26:11;;;;;;;;;14.75;13.50;;;;;25.45;49.68;101543.16;4998150;28;45400;-79
2021/07/20 03:28:40;;;;;;;;;14.00;13.00;;;;;25.42;49.71;101548.50;4998250;28;45461;-79
2021/07/20 03:31:07;;;;;;;;;13.75;12.75;;;;;25.38;49.48;101544.94;5001249;28;45303;-80
2021/07/20 03:33:33;;;;;;;;;13.75;13.25;;;;;25.35;49.94;101543.19;5003920;28;45319;-79
2021/07/20 03:36:00;;;;;;;;;13.50;11.00;;;;;25.32;49.58;101537.88;5003982;28;45506;-80
2021/07/20 03:38:26;;;;;;;;;13.50;13.50;;;;;25.30;50.34;101545.00;5000856;28;45537;-80
2021/07/20 03:40:53;;;;;;;;;16.50;14.25;;;;;25.28;50.03;101543.22;4997730;28;45453;-80
2021/07/20 03:43:22;;;;;;;;;13.00;13.00;;;;;25.27;49.68;101550.31;4997751;28;45341;-80
2021/07/20 03:45:49;;;;;;;;;13.75;11.75;;;;;25.21;49.92;101547.69;4997316;28;45355;-79
2021/07/20 03:48:16;;;;;;;;;13.25;11.00;;;;;25.21;49.82;101544.13;4997822;28;45681;-80
2021/07/20 03:50:44;;;;;;;;;13.25;13.25;;;;;25.20;49.96;101543.28;4997098;28;45978;-80
2021/07/20 03:53:11;;;;;;;;;13.50;13.50;;;;;25.20;50.63;101540.63;4997277;28;45493;-79
2021/07/20 03:55:41;;;;;;;;;15.25;13.25;;;;;25.19;49.96;101538.84;4997118;28;45489;-79
2021/07/20 03:58:08;;;;;;;;;14.00;13.00;;;;;25.17;49.73;101536.19;4996771;28;45404;-80
2021/07/20 04:00:34;;;;;;;;;13.75;12.25;;;;;25.16;50.01;101544.16;4997668;28;45491;-79
2021/07/20 04:06:05;;;;;;;;;14.25;13.00;;;;;25.13;50.66;101550.38;5001372;28;45358;-80
2021/07/20 04:08:37;;;;;;;;;17.25;13.75;;;;;25.12;50.27;101535.34;4999469;28;45206;-79
2021/07/20 04:11:04;;;;;;;;;14.75;14.00;;;;;25.10;50.15;101550.38;4997083;28;45484;-79
2021/07/20 04:13:30;;;;;;;;;14.75;13.25;;;;;25.09;50.92;101550.38;4997444;28;45443;-79
2021/07/20 04:16:09;;;;;;;;;13.00;12.00;;;;;25.07;50.38;101554.81;4997314;28;45352;-79
2021/07/20 04:18:37;;;;;;;;;15.00;13.50;;;;;25.03;50.25;101551.28;4997050;28;45592;-82
2021/07/20 04:21:04;;;;;;;;;16.00;16.00;;;;;25.02;50.22;101558.34;4996993;28;46121;-80
2021/07/20 04:23:31;;;;;;;;;15.25;15.00;;;;;25.00;50.60;101565.41;4995976;28;45215;-79
2021/07/20 04:25:59;;;;;;;;;15.50;13.00;;;;;24.97;50.23;101565.44;4997341;28;45316;-79
2021/07/20 04:28:26;;;;;;;;;14.25;14.25;;;;;24.98;50.80;101567.19;4997729;28;45620;-79
2021/07/20 04:30:53;;;;;;;;;14.50;13.50;;;;;24.97;50.85;101567.19;5000214;28;45432;-79
2021/07/20 04:33:26;;;;;;;;;16.75;15.25;;;;;24.93;50.63;101568.97;4998738;28;45381;-81
2021/07/20 04:35:56;;;;;;;;;13.00;10.25;;;;;24.93;50.81;101568.97;4997216;28;45398;-79
2021/07/20 04:38:26;;;;;;;;;16.00;14.75;;;;;24.92;50.52;101571.63;4997403;28;45404;-79
2021/07/20 04:40:52;;;;;;;;;19.25;16.00;;;;;24.92;50.47;101575.16;4996467;28;46177;-79
2021/07/20 04:43:18;;;;;;;;;11.50;10.00;;;;;24.92;50.34;101571.63;4996490;28;45291;-80
2021/07/20 04:45:46;;;;;;;;;13.00;13.00;;;;;24.93;50.91;101568.09;4995219;28;45414;-79
2021/07/20 04:48:14;;;;;;;;;15.50;15.25;;;;;24.93;50.68;101573.41;4996689;28;45605;-80
2021/07/20 04:50:41;;;;;;;;;17.75;15.00;;;;;24.93;50.42;101571.63;4996268;28;45363;-80
2021/07/20 04:53:09;;;;;;;;;17.00;14.75;;;;;24.91;50.59;101576.03;4996874;28;45508;-80
2021/07/20 04:55:38;;;;;;;;;19.00;15.50;;;;;24.86;51.33;101570.75;4996267;28;45311;-79
2021/07/20 04:58:04;;;;;;;;;19.75;16.75;;;;;24.86;51.07;101572.53;4997972;28;45360;-80
2021/07/20 05:00:30;;;;;;;;;14.75;14.25;;;;;24.83;50.91;101573.44;5003444;28;45810;-80
2021/07/20 05:02:59;;;;;;;;;19.50;18.00;;;;;24.80;51.15;101583.13;5001167;28;45749;-79
2021/07/20 05:05:27;;;;;;;;;15.00;15.00;;;;;24.73;51.26;101585.78;4999878;28;45339;-80
2021/07/20 05:07:54;;;;;;;;;17.75;14.50;;;;;24.72;51.22;101586.69;4996357;28;45589;-79
2021/07/20 05:10:21;;;;;;;;;16.25;14.75;;;;;24.74;51.31;101589.31;4994720;28;46292;-80
2021/07/20 05:12:48;;;;;;;;;18.50;18.00;;;;;24.70;51.36;101580.50;4996133;28;45339;-80
2021/07/20 05:15:16;;;;;;;;;16.50;14.25;;;;;24.72;51.76;101586.69;4997085;28;45341;-82
2021/07/20 05:17:42;;;;;;;;;17.00;14.00;;;;;24.75;50.77;101590.22;4996656;28;45683;-79
2021/07/20 05:20:08;;;;;;;;;20.00;18.00;;;;;24.75;51.20;101590.22;5011255;28;46076;-79
2021/07/20 05:22:35;;;;;;;;;18.00;17.00;;;;;24.78;51.13;101584.91;4995875;28;45283;-79
2021/07/20 05:25:06;;;;;;;;;17.00;15.50;;;;;24.80;50.97;101583.13;4997548;28;45378;-79
2021/07/20 05:27:35;;;;;;;;;17.00;15.00;;;;;24.79;50.63;101582.25;4999934;28;45767;-79
2021/07/20 05:30:01;;;;;;;;;18.00;16.50;;;;;24.80;50.57;101589.31;5003418;28;45408;-79
2021/07/20 05:32:27;;;;;;;;;18.50;15.00;;;;;24.83;49.98;101599.00;5000076;28;45791;-79
2021/07/20 05:34:53;;;;;;;;;16.50;14.50;;;;;24.82;50.15;101591.94;4996343;28;45366;-79
2021/07/20 05:37:20;;;;;;;;;17.25;14.25;;;;;24.83;50.09;101594.63;4996496;28;45573;-80
2021/07/20 05:39:47;;;;;;;;;17.50;17.00;;;;;24.86;50.16;101593.72;4995809;28;46154;-80
2021/07/20 05:42:17;;;;;;;;;19.00;17.00;;;;;24.86;49.78;101591.94;4998413;28;45784;-80
2021/07/20 05:44:43;;;;;;;;;20.50;17.50;;;;;24.86;50.13;101589.28;5005233;28;45444;-80
2021/07/20 05:47:09;;;;;;;;;17.00;17.00;;;;;24.87;49.94;101591.06;5005567;28;45509;-81
2021/07/20 05:49:35;;;;;;;;;20.25;18.25;;;;;24.88;49.71;101607.84;5010410;28;45478;-80
2021/07/20 05:52:02;;;;;;;;;19.25;18.25;;;;;24.86;49.53;101591.94;5005900;28;45424;-79
2021/07/20 05:54:29;;;;;;;;;20.00;19.25;;;;;24.88;49.17;101600.78;5009120;28;45348;-80
2021/07/20 05:56:57;;;;;;;;;16.00;14.00;;;;;24.87;49.00;101601.66;5010117;28;45228;-79
2021/07/20 05:59:24;;;;;;;;;17.75;17.00;;;;;24.87;49.11;101611.38;5011110;28;45414;-80
2021/07/20 06:01:51;;;;;;;;;21.75;19.25;;;;;24.89;49.23;101609.59;5013879;28;45855;-79
2021/07/20 06:04:18;;;;;;;;;20.50;19.75;;;;;24.90;49.11;101605.19;5015753;28;45221;-79
2021/07/20 06:06:47;;;;;;;;;24.00;20.00;;;;;24.92;49.02;101620.19;5017523;28;45355;-78
2021/07/20 06:09:12;;;;;;;;;21.00;18.50;;;;;24.93;48.95;101608.69;5024998;28;45352;-79
2021/07/20 06:11:41;;;;;;;;;21.00;18.25;;;;;24.93;48.86;101611.34;5006371;28;45379;-84
2021/07/20 06:14:08;;;;;;;;;21.50;17.25;;;;;24.94;48.96;101606.94;5000682;28;45826;-83
2021/07/20 06:16:35;;;;;;;;;21.50;20.50;;;;;24.94;48.94;101606.94;4994447;28;45329;-81
2021/07/20 06:19:01;;;;;;;;;22.00;20.75;;;;;24.97;48.78;101610.47;4994457;28;46744;-80
2021/07/20 06:21:27;;;;;;;;;22.25;20.00;;;;;24.98;48.20;101614.00;4997718;28;45486;-80
2021/07/20 06:23:57;;;;;;;;;24.75;23.00;;;;;25.02;47.96;101613.97;5012394;28;45494;-82
2021/07/20 06:26:25;;;;;;;;;25.75;22.25;;;;;25.02;48.43;101613.09;4994257;28;45518;-81
2021/07/20 06:29:02;;;;;;;;;24.50;23.50;;;;;25.06;48.30;101611.31;5005421;28;46390;-81
2021/07/20 06:31:29;;;;;;;;;25.75;24.25;;;;;25.05;48.10;101615.75;4999666;28;45446;-82
2021/07/20 06:33:56;;;;;;;;;26.75;24.50;;;;;25.07;47.63;101627.22;4998977;28;45380;-82
2021/07/20 06:36:23;;;;;;;;;26.75;22.25;;;;;25.08;47.52;101622.81;5005015;28;45610;-82
2021/07/20 06:38:49;;;;;;;;;28.00;27.00;;;;;25.11;47.57;101628.06;5011073;28;45500;-83
2021/07/20 06:41:19;;;;;;;;;28.75;23.75;;;;;25.14;47.48;101626.31;5002456;28;46147;-82
2021/07/20 06:43:46;;;;;;;;;24.25;23.50;;;;;25.17;46.40;101621.00;4997618;28;45569;-82
2021/07/20 06:46:13;;;;;;;;;24.00;21.25;;;;;25.19;46.21;101619.22;5018178;28;45453;-85
2021/07/20 06:48:43;;;;;;;;;32.00;24.75;;;;;25.22;46.04;101618.31;5017491;28;45447;-80
2021/07/20 06:51:09;;;;;;;;;25.25;23.75;;;;;25.25;45.82;101620.13;5019099;28;45512;-79
2021/07/20 06:53:34;;;;;;;;;28.75;26.00;;;;;25.26;46.24;101616.56;5014077;28;45312;-81
2021/07/20 06:56:03;;;;;;;;;28.25;23.25;;;;;25.27;46.18;101626.28;5004418;28;45249;-83
2021/07/20 06:58:31;;;;;;;;;33.75;27.75;;;;;25.29;46.03;101620.09;5022971;28;45530;-82
2021/07/20 07:00:59;;;;;;;;;34.50;28.00;;;;;25.31;45.53;101618.31;5016444;28;45715;-82
2021/07/20 07:03:53;;;;;;;;;34.50;28.75;;;;;25.32;44.66;101627.16;5014940;28;45774;-83
2021/07/20 07:06:22;;;;;;;;;30.25;28.50;;;;;25.31;44.52;101622.72;5015470;28;45434;-82
2021/07/20 07:08:49;;;;;;;;;29.00;28.00;;;;;25.34;44.83;101628.03;5013890;28;46363;-82
2021/07/20 07:11:16;;;;;;;;;29.50;25.75;;;;;25.37;44.86;101628.03;5005977;28;45964;-82
2021/07/20 07:13:43;;;;;;;;;32.00;25.50;;;;;25.39;44.25;101625.34;5008966;28;45751;-81
2021/07/20 07:16:11;;;;;;;;;28.50;27.00;;;;;25.43;44.18;101630.66;5018939;28;45426;-81
2021/07/20 07:18:37;;;;;;;;;40.50;31.75;;;;;25.45;43.83;101633.31;5017406;28;45862;-81
2021/07/20 07:21:04;;;;;;;;;34.50;30.75;;;;;25.45;44.08;101644.81;5016238;28;45469;-81
2021/07/20 07:23:32;;;;;;;;;29.25;26.00;;;;;25.48;43.86;101634.16;5020359;28;45664;-81
2021/07/20 07:26:01;;;;;;;;;30.50;26.75;;;;;25.48;43.32;101638.59;5021626;28;45544;-82
2021/07/20 07:28:28;;;;;;;;;27.75;23.75;;;;;25.48;43.94;101633.31;5019196;28;46760;-81
2021/07/20 07:30:55;;;;;;;;;24.50;20.50;;;;;25.51;44.19;101638.59;5017415;28;45411;-82
2021/07/20 07:33:22;;;;;;;;;32.00;24.50;;;;;25.53;43.73;101643.88;5015763;28;45601;-81
2021/07/20 07:35:51;;;;;;;;;27.00;21.00;;;;;25.55;44.52;101645.63;5017640;28;45477;-82
2021/07/20 07:38:19;;;;;;;;;24.75;22.00;;;;;25.55;43.94;101642.13;5017545;28;46285;-81
2021/07/20 07:40:56;;;;;;;;;28.00;23.50;;;;;25.56;44.24;101641.22;5017423;28;45327;-81
2021/07/20 07:43:25;;;;;;;;;31.50;25.50;;;;;25.58;43.68;101640.31;5018028;28;45462;-82
2021/07/20 07:45:59;;;;;;;;;27.00;24.00;;;;;25.60;43.32;101641.22;5019965;28;45498;-81
2021/07/20 07:48:36;;;;;;;;;24.00;21.75;;;;;25.60;42.80;101649.16;5022361;28;46171;-80
2021/07/20 07:51:03;;;;;;;;;27.50;24.00;;;;;25.61;43.07;101647.38;5021986;28;45455;-80
2021/07/20 07:53:30;;;;;;;;;25.25;23.75;;;;;25.61;42.89;101645.63;5022267;28;45272;-80
2021/07/20 07:55:56;;;;;;;;;30.25;24.00;;;;;25.62;43.13;101644.75;5020794;28;45528;-81
2021/07/20 07:58:28;;;;;;;;;26.75;23.25;;;;;25.65;43.00;101657.09;5020450;28;46263;-81
2021/07/20 08:00:55;;;;;;;;;24.50;21.75;;;;;25.65;43.14;101646.47;5021436;28;45699;-81
2021/07/20 08:03:22;;;;;;;;;30.00;25.50;;;;;25.67;42.76;101642.06;5023751;28;45326;-81
2021/07/20 08:05:49;;;;;;;;;31.50;26.50;;;;;25.68;43.26;101646.47;5016812;28;45418;-86
2021/07/20 08:08:17;;;;;;;;;27.25;23.50;;;;;25.71;43.05;101641.13;5004586;28;45470;-81
2021/07/20 08:10:47;;;;;;;;;27.25;23.75;;;;;25.73;42.37;101639.38;5017630;28;45794;-78
2021/07/20 08:13:15;;;;;;;;;27.25;23.75;;;;;25.77;42.42;101640.22;5015428;28;45479;-80
2021/07/20 08:15:42;;;;;;;;;34.50;24.25;;;;;25.79;42.59;101638.44;5018801;28;45601;-79
2021/07/20 08:18:09;;;;;;;;;24.75;22.25;;;;;25.82;42.18;101646.41;5016867;28;46576;-80
2021/07/20 08:20:36;;;;;;;;;26.00;26.00;;;;;25.84;41.51;101647.28;5018500;28;45699;-80
2021/07/20 08:23:02;;;;;;;;;28.25;27.25;;;;;25.84;41.77;101641.97;5018480;28;45276;-80
2021/07/20 08:25:35;;;;;;;;;24.00;24.00;;;;;25.86;42.72;101634.91;5016488;28;45336;-79
2021/07/20 08:28:19;;;;;;;;;23.00;22.25;;;;;25.91;41.71;101635.72;5023015;28;46445;-81
2021/07/20 08:30:49;;;;;;;;;26.00;24.00;;;;;25.92;41.70;101629.53;5016594;28;45287;-81
2021/07/20 08:33:22;;;;;;;;;26.00;23.00;;;;;25.98;41.25;101638.34;5008318;28;45352;-80
2021/07/20 08:35:53;;;;;;;;;28.25;26.25;;;;;26.00;41.51;101641.88;5007638;28;45469;-84
2021/07/20 08:38:21;;;;;;;;;28.00;25.50;;;;;26.00;41.07;101640.09;5010656;28;46592;-81
2021/07/20 08:40:49;;;;;;;;;25.50;24.50;;;;;26.03;41.59;101642.72;5016898;28;45837;-82
2021/07/20 08:43:27;;;;;;;;;25.25;24.25;;;;;26.06;41.53;101641.84;5016282;28;45348;-81
2021/07/20 08:46:09;;;;;;;;;22.00;20.75;;;;;26.07;40.63;101647.13;5017006;28;45281;-81
2021/07/20 08:48:52;;;;;;;;;27.50;25.75;;;;;26.09;40.64;101644.44;5021130;28;46135;-81
2021/07/20 08:51:38;;;;;;;;;22.75;19.75;;;;;26.11;41.35;101646.25;5018091;28;45863;-80
2021/07/20 08:54:12;;;;;;;;;22.00;21.50;;;;;26.15;40.98;101648.88;5013941;28;45421;-81
2021/07/20 08:56:42;;;;;;;;;23.00;20.75;;;;;26.15;40.62;101647.13;5017527;28;45395;-82
2021/07/20 08:59:13;;;;;;;;;19.50;17.25;;;;;26.18;41.21;101654.16;5016844;28;45617;-81
2021/07/20 09:02:04;;;;;;;;;24.75;22.25;;;;;26.17;41.07;101645.34;5016332;28;45391;-81
2021/07/20 09:04:56;;;;;;;;;21.75;19.75;;;;;26.20;41.17;101647.09;5014083;28;45243;-82
2021/07/20 09:07:30;;;;;;;;;23.25;21.75;;;;;26.22;41.05;101647.97;4997880;28;45439;-80
2021/07/20 09:09:58;;;;;;;;;26.50;23.75;;;;;26.24;41.23;101647.03;4997281;28;45344;-81
2021/07/20 09:12:30;;;;;;;;;22.00;21.25;;;;;26.27;41.15;101646.13;4997441;28;45357;-81
2021/07/20 09:15:06;;;;;;;;;26.75;24.50;;;;;26.31;41.46;101650.53;5000140;28;45476;-81
2021/07/20 09:17:53;;;;;;;;;25.50;23.50;;;;;26.33;41.49;101651.41;5002829;28;45940;-82
2021/07/20 09:20:28;;;;;;;;;23.75;20.25;;;;;26.37;41.81;101654.94;5000025;28;45423;-83
2021/07/20 09:22:56;;;;;;;;;28.50;22.75;;;;;26.38;41.90;101644.28;4997003;28;45290;-82
2021/07/20 09:25:27;;;;;;;;;27.50;24.00;;;;;26.42;42.08;101653.09;4996674;28;45432;-81
2021/07/20 09:28:30;;;;;;;;;26.00;22.50;;;;;26.44;41.64;101647.78;5005997;28;45320;-81
2021/07/20 09:30:57;;;;;;;;;28.00;21.75;;;;;26.44;41.73;101646.00;5032418;28;46812;-80
2021/07/20 09:33:45;;;;;;;;;30.00;23.00;;;;;26.48;41.82;101646.84;5016422;28;45880;-81
2021/07/20 09:36:39;;;;;;;;;22.75;20.75;;;;;26.49;41.81;101656.59;5015855;28;45354;-82
2021/07/20 09:39:34;;;;;;;;;26.25;24.75;;;;;26.49;42.02;101643.31;5015993;28;45385;-81
2021/07/20 09:42:10;;;;;;;;;26.25;24.25;;;;;26.51;41.56;101649.50;5018226;28;46358;-81
2021/07/20 09:45:05;;;;;;;;;28.50;25.00;;;;;26.51;42.20;101644.19;5021222;28;45474;-82
2021/07/20 09:47:45;;;;;;;;;25.50;21.25;;;;;26.50;42.21;101640.66;4991708;28;45632;-81
2021/07/20 09:50:15;;;;;;;;;26.75;23.75;;;;;26.52;41.61;101637.97;5036110;28;45303;-83
2021/07/20 09:53:05;;;;;;;;;26.00;20.25;;;;;26.54;42.36;101641.50;5016259;28;45469;-83
2021/07/20 09:56:01;;;;;;;;;27.00;23.50;;;;;26.57;42.34;101638.81;5017017;28;45190;-81
2021/07/20 09:58:29;;;;;;;;;26.75;21.75;;;;;26.58;41.91;101641.47;5028179;28;45386;-83
2021/07/20 10:01:18;;;;;;;;;21.75;21.25;;;;;26.62;42.54;101637.00;5024234;28;45608;-82
2021/07/20 10:03:55;;;;;;;;;22.50;21.25;;;;;26.65;41.90;101633.44;5013616;28;45521;-84
2021/07/20 10:06:39;;;;;;;;;22.75;21.50;;;;;26.69;42.10;101632.53;4997977;28;45668;-83
2021/07/20 10:09:09;;;;;;;;;23.50;21.00;;;;;26.72;41.42;101633.38;5001865;28;45371;-84
2021/07/20 10:11:47;;;;;;;;;23.25;19.75;;;;;26.73;41.89;101628.91;5004881;28;45520;-83
2021/07/20 10:14:16;;;;;;;;;25.25;24.50;;;;;26.77;41.54;101632.44;5005764;28;45344;-83
2021/07/20 10:16:54;;;;;;;;;21.00;20.25;;;;;26.79;41.62;101620.94;5001973;28;45313;-83
2021/07/20 10:19:56;;;;;;;;;22.50;19.75;;;;;26.81;41.11;101624.47;5000133;28;45329;-83
2021/07/20 10:22:43;;;;;;;;;27.00;23.50;;;;;26.84;41.69;101620.88;4993873;28;45795;-82
2021/07/20 10:25:48;;;;;;;;;23.00;19.75;;;;;26.89;41.87;101624.38;5006085;28;46596;-80
2021/07/20 10:28:39;;;;;;;;;22.75;20.75;;;;;26.92;41.87;101608.41;4998550;28;45656;-82
2021/07/20 10:31:12;;;;;;;;;24.25;20.50;;;;;26.96;41.81;101609.25;4997285;28;45441;-81
2021/07/20 10:33:43;;;;;;;;;23.00;18.50;;;;;27.01;41.48;101607.44;4998350;28;45502;-82
2021/07/20 10:36:18;;;;;;;;;22.25;19.50;;;;;27.06;41.39;101613.56;4998365;28;46023;-81
2021/07/20 10:38:54;;;;;;;;;24.00;17.75;;;;;27.09;41.33;101604.69;4999119;28;45801;-83
2021/07/20 10:41:28;;;;;;;;;23.25;20.75;;;;;27.11;41.55;101603.75;4998289;28;45351;-82
2021/07/20 10:43:59;;;;;;;;;20.25;18.50;;;;;27.13;41.21;101603.72;4998464;28;45329;-84
2021/07/20 10:46:31;;;;;;;;;24.50;20.50;;;;;27.14;40.95;101600.19;5001706;28;46236;-83
2021/07/20 10:49:14;;;;;;;;;18.75;18.75;;;;;27.18;41.24;101597.47;5016152;28;45269;-85
2021/07/20 10:51:44;;;;;;;;;19.25;15.75;;;;;27.24;40.82;101598.31;5005678;28;45435;-89
2021/07/20 10:54:26;;;;;;;;;18.25;17.25;;;;;27.27;40.96;101603.56;5013629;28;45552;-87
2021/07/20 10:56:59;;;;;;;;;23.00;18.75;;;;;27.31;40.08;101599.97;5018105;28;45403;-82
2021/07/20 10:59:27;;;;;;;;;23.75;20.75;;;;;27.34;40.95;101597.28;5020724;28;45697;-83
2021/07/20 11:02:02;;;;;;;;;21.50;19.00;;;;;27.39;40.81;101599.88;5020268;28;45355;-84
2021/07/20 11:04:59;;;;;;;;;21.50;18.25;;;;;27.41;40.89;101595.44;5017512;28;45348;-82
2021/07/20 11:07:30;;;;;;;;;20.25;19.25;;;;;27.44;40.47;101590.97;4996972;28;47713;-80
2021/07/20 11:10:05;;;;;;;;;23.75;19.00;;;;;27.46;40.86;101588.28;5005014;28;45512;-78
2021/07/20 11:12:34;;;;;;;;;22.75;20.00;;;;;27.48;40.71;101595.34;5017925;28;45519;-80
2021/07/20 11:15:01;;;;;;;;;17.25;16.75;;;;;27.52;40.36;101588.22;5003956;28;45350;-81
2021/07/20 11:17:32;;;;;;;;;20.50;20.00;;;;;27.55;40.48;101589.97;5002302;28;46846;-78
2021/07/20 11:19:58;;;;;;;;;20.25;19.00;;;;;27.59;41.25;101592.56;5015723;28;45744;-80
2021/07/20 11:22:27;;;;;;;;;17.00;16.50;;;;;27.62;40.34;101586.28;5016758;28;45767;-82
2021/07/20 11:24:53;;;;;;;;;19.50;15.25;;;;;27.63;40.73;101586.28;5007718;28;46081;-81
2021/07/20 11:27:21;;;;;;;;;21.00;15.50;;;;;27.67;39.82;101586.22;5006744;28;45435;-76
2021/07/20 11:29:49;;;;;;;;;20.75;17.50;;;;;27.72;39.96;101592.38;5006292;28;45329;-78
2021/07/20 11:32:22;;;;;;;;;22.00;20.25;;;;;27.76;39.97;101581.66;5010556;28;45499;-78